KPLN/PLN METAR and TAF weather

Enter ICAO airport designator
Station Type Date Time Source
KPLN METAR 2022/05/26 03:54 UTC NOAA

KPLN 260354Z AUTO 11007KT 9SM -RA OVC004 12/11 A2988 RMK AO2 RAE29B37 SLP121 P0003 T01170111


Station Type Date Time Source
KPLN Decoded METAR 2022/05/26 03:54 UTC NOAA

PELLSTON REGIONAL AIRPORT, MI, United States (KPLN) 45-34N 084-48W 217M
May 25, 2022 - 11:54 PM EDT / 2022.05.26 0354 UTC
Wind: from the ESE (110 degrees) at 8 MPH (7 KT):0
Visibility: 9 mile(s):0
Sky conditions: overcast
Weather: light rain
Precipitation last hour: 0.03 inches
Temperature: 53.1 F (11.7 C)
Dew Point: 52.0 F (11.1 C)
Relative Humidity: 96%
Pressure (altimeter): 29.88 in. Hg (1011 hPa)
ob: KPLN 260354Z AUTO 11007KT 9SM -RA OVC004 12/11 A2988 RMK AO2 RAE29B37 SLP121 P0003 T01170111
cycle: 4

Station Type Date Time Source
KPLN TAF 2022/05/25 18:28 UTC NOAA

TAF KPLN 251726Z 2518/2618 10012G20KT P6SM VCSH BKN100
FM252100 10012KT 6SM -SHRA BR OVC035
FM252200 10012KT 2SM -SHRA BR OVC022
FM252300 11013KT 1 1/2SM -SHRA BR OVC011 WS020/12040KT
FM260500 14010KT 3SM -SHRA BR OVC004 WS020/18040KT
FM261500 23012KT P6SM OVC007

Example: see airport list